Terminal Aerodrome Forecast
Issued by NWS Newport/Morehead City, NC

Home | Current Version | Previous Version | Graphics & Text | Print | Product List | Glossary On
Versions: 1 2 3 4 5 6 7 8 9 10 11 12 13 14 15 16 17 18 19 20 21 22 23 24
000
FTUS42 KMHX 012008 AAC
TAFEWN
TAF AMD
KEWN 012008Z 0120/0218 04005KT P6SM VCSH SCT025 BKN035 OVC050
     FM012200 VRB05KT 5SM -RA OVC020
     FM020000 23005KT 4SM -RA OVC015
     FM020700 24005KT P6SM OVC030
     FM021500 30005KT P6SM OVC050=

USA.gov is the U.S. government's official web portal to all federal, state and local government web resources and services.